createdAt,value
2023-02-04T00:01:06.715Z,3.60
2023-02-04T00:03:38.627Z,5.17
2023-02-04T00:06:09.277Z,3.93
2023-02-04T00:08:39.814Z,3.03
2023-02-04T00:11:11.211Z,4.03
2023-02-04T00:13:41.576Z,3.80
2023-02-04T00:16:12.073Z,3.13
2023-02-04T00:18:43.585Z,2.90
2023-02-04T00:21:15.740Z,5.13
2023-02-04T00:23:50.716Z,2.80
2023-02-04T00:26:24.242Z,2.50
2023-02-04T00:28:55.941Z,3.53
2023-02-04T00:31:28.440Z,3.97
2023-02-04T00:34:00.785Z,2.47
2023-02-04T00:36:33.569Z,3.03
2023-02-04T00:39:05.644Z,3.60
2023-02-04T00:41:38.237Z,2.50
2023-02-04T00:44:11.151Z,2.83
2023-02-04T00:46:43.010Z,2.83
2023-02-04T00:49:13.432Z,2.60
2023-02-04T00:51:46.088Z,2.77
2023-02-04T00:54:16.646Z,3.30
2023-02-04T00:56:48.244Z,2.90
2023-02-04T00:59:19.024Z,3.13
2023-02-04T01:01:51.129Z,2.83
2023-02-04T01:04:21.636Z,3.23
2023-02-04T01:06:52.190Z,2.30
2023-02-04T01:09:22.637Z,4.00
2023-02-04T01:11:53.589Z,4.40
2023-02-04T01:14:26.113Z,3.00
2023-02-04T01:16:56.633Z,4.07
2023-02-04T01:19:27.204Z,2.33
2023-02-04T01:21:57.631Z,4.00
2023-02-04T01:24:28.049Z,3.23
2023-02-04T01:26:58.559Z,2.73
2023-02-04T01:29:29.060Z,3.57
2023-02-04T01:31:59.520Z,2.50
2023-02-04T01:34:31.759Z,3.37
2023-02-04T01:37:02.183Z,3.90
2023-02-04T01:39:34.136Z,3.40
2023-02-04T01:42:07.252Z,2.90
2023-02-04T01:44:37.791Z,3.63
2023-02-04T01:47:08.605Z,2.13
2023-02-04T01:49:39.164Z,2.50
2023-02-04T01:52:12.111Z,2.20
2023-02-04T01:54:43.834Z,1.63
2023-02-04T01:57:17.844Z,2.63
2023-02-04T01:59:51.864Z,4.57
2023-02-04T02:02:42.121Z,2.93
2023-02-04T02:05:15.748Z,3.13
2023-02-04T02:07:46.576Z,2.00
2023-02-04T02:10:18.354Z,2.63
2023-02-04T02:12:50.318Z,2.53
2023-02-04T02:15:21.408Z,2.70
2023-02-04T02:17:55.111Z,4.47
2023-02-04T02:20:29.323Z,2.20
2023-02-04T02:23:02.907Z,4.03
2023-02-04T02:25:34.586Z,4.30
2023-02-04T02:28:07.929Z,2.80
2023-02-04T02:30:39.309Z,1.83
2023-02-04T02:33:10.875Z,1.83
2023-02-04T02:35:43.552Z,3.57
2023-02-04T02:38:14.703Z,2.87
2023-02-04T02:40:46.924Z,4.80
2023-02-04T02:43:21.594Z,3.40
2023-02-04T02:45:52.273Z,2.70
2023-02-04T02:48:23.183Z,2.80
2023-02-04T02:50:54.253Z,3.70
2023-02-04T02:53:27.793Z,1.97
2023-02-04T02:55:58.413Z,2.00
2023-02-04T02:58:37.725Z,3.60
2023-02-04T03:01:11.447Z,2.17
2023-02-04T03:03:45.187Z,2.70
2023-02-04T03:06:21.618Z,3.20
2023-02-04T03:08:55.167Z,4.67
2023-02-04T03:11:29.404Z,3.63
2023-02-04T03:14:01.710Z,4.50
2023-02-04T03:16:33.901Z,2.10
2023-02-04T03:19:05.533Z,3.53
2023-02-04T03:21:38.358Z,4.00
2023-02-04T03:24:09.352Z,13.83
2023-02-04T03:26:39.996Z,4.13
2023-02-04T03:29:11.335Z,4.17
2023-02-04T03:31:44.995Z,3.17
2023-02-04T03:34:15.716Z,2.90
2023-02-04T03:36:46.209Z,1.73
2023-02-04T03:39:18.344Z,2.37
2023-02-04T03:41:50.426Z,3.13
2023-02-04T03:44:23.443Z,4.10
2023-02-04T03:46:59.747Z,3.37
2023-02-04T03:49:31.872Z,3.63
2023-02-04T03:52:02.770Z,3.93
2023-02-04T03:54:33.222Z,2.10
2023-02-04T03:57:03.829Z,3.40
2023-02-04T03:59:34.285Z,2.17
2023-02-04T04:02:05.102Z,4.73
2023-02-04T04:04:38.686Z,3.53
2023-02-04T04:07:09.251Z,2.60
2023-02-04T04:09:39.726Z,2.73
2023-02-04T04:12:10.195Z,2.03
2023-02-04T04:14:40.666Z,1.93
2023-02-04T04:17:11.292Z,2.87
2023-02-04T04:19:41.832Z,1.53
2023-02-04T04:22:13.817Z,3.33
2023-02-04T04:24:44.321Z,2.57
2023-02-04T04:27:16.355Z,2.97
2023-02-04T04:29:47.831Z,4.13
2023-02-04T04:32:19.359Z,2.83
2023-02-04T04:34:51.174Z,2.70
2023-02-04T04:37:21.658Z,4.07
2023-02-04T04:39:52.030Z,2.20
2023-02-04T04:42:22.778Z,1.60
2023-02-04T04:44:54.840Z,2.33
2023-02-04T04:47:26.951Z,3.97
2023-02-04T04:49:58.949Z,3.83
2023-02-04T04:52:29.782Z,2.80
2023-02-04T04:55:00.304Z,2.80
2023-02-04T04:57:30.850Z,2.33
2023-02-04T05:00:02.267Z,1.53
2023-02-04T05:02:32.771Z,2.87
2023-02-04T05:05:05.103Z,2.23
2023-02-04T05:07:35.617Z,2.23
2023-02-04T05:10:08.088Z,4.60
2023-02-04T05:12:38.630Z,1.60
2023-02-04T05:15:09.665Z,4.57
2023-02-04T05:17:41.751Z,4.70
2023-02-04T05:20:17.407Z,4.90
2023-02-04T05:22:48.667Z,3.33
2023-02-04T05:25:20.517Z,3.37
2023-02-04T05:27:53.740Z,3.03
2023-02-04T05:30:25.738Z,3.70
2023-02-04T05:32:57.669Z,2.23
2023-02-04T05:35:28.029Z,2.33
2023-02-04T05:37:58.517Z,1.93
2023-02-04T05:40:29.005Z,3.50
2023-02-04T05:42:59.896Z,5.47
2023-02-04T05:45:30.777Z,3.23
2023-02-04T05:48:03.446Z,2.83
2023-02-04T05:50:34.094Z,2.83
2023-02-04T05:53:04.998Z,3.93
2023-02-04T05:55:35.775Z,2.30
2023-02-04T05:58:07.620Z,3.67
2023-02-04T06:00:39.502Z,2.47
2023-02-04T06:03:14.595Z,4.13
2023-02-04T06:05:45.147Z,4.07
2023-02-04T06:08:15.841Z,3.50
2023-02-04T06:10:46.424Z,1.90
2023-02-04T06:13:18.668Z,7.00
2023-02-04T06:15:49.441Z,3.30
2023-02-04T06:18:20.025Z,3.00
2023-02-04T06:20:50.605Z,5.37
2023-02-04T06:23:23.346Z,4.07
2023-02-04T06:25:55.316Z,4.03
2023-02-04T06:28:25.806Z,3.53
2023-02-04T06:30:56.318Z,4.50
2023-02-04T06:33:26.887Z,2.17
2023-02-04T06:35:59.084Z,3.20
2023-02-04T06:38:29.549Z,3.43
2023-02-04T06:41:01.760Z,2.33
2023-02-04T06:43:32.175Z,2.13
2023-02-04T06:46:06.622Z,3.20
2023-02-04T06:48:39.300Z,4.90
2023-02-04T06:51:09.907Z,5.23
2023-02-04T06:53:43.591Z,4.23
2023-02-04T06:56:14.090Z,2.40
2023-02-04T06:58:44.699Z,2.80
2023-02-04T07:01:16.798Z,3.37
2023-02-04T07:03:47.381Z,3.70
2023-02-04T07:06:20.405Z,6.30
2023-02-04T07:08:52.331Z,4.93
2023-02-04T07:11:23.172Z,6.30
2023-02-04T07:13:58.245Z,7.30
2023-02-04T07:16:28.793Z,4.63
2023-02-04T07:18:59.308Z,6.03
2023-02-04T07:21:30.633Z,5.57
2023-02-04T07:24:01.088Z,3.90
2023-02-04T07:26:31.741Z,4.27
2023-02-04T07:29:03.320Z,3.63
2023-02-04T07:31:36.708Z,3.23
2023-02-04T07:34:10.578Z,2.37
2023-02-04T07:36:42.838Z,4.80
2023-02-04T07:39:13.635Z,3.13
2023-02-04T07:41:49.469Z,2.90
2023-02-04T07:44:21.870Z,3.80
2023-02-04T07:46:52.403Z,2.40
2023-02-04T07:49:23.654Z,5.23
2023-02-04T07:51:57.887Z,2.60
2023-02-04T07:54:29.040Z,3.00
2023-02-04T07:56:59.785Z,4.80
2023-02-04T07:59:32.936Z,4.37
2023-02-04T08:02:05.327Z,4.13
2023-02-04T08:04:35.966Z,4.57
2023-02-04T08:07:07.540Z,3.73
2023-02-04T08:09:40.120Z,3.10
2023-02-04T08:12:11.729Z,3.97
2023-02-04T08:14:42.408Z,4.23
2023-02-04T08:17:12.892Z,3.20
2023-02-04T08:19:44.450Z,4.07
2023-02-04T08:22:15.934Z,4.70
2023-02-04T08:24:51.009Z,2.93
2023-02-04T08:27:25.761Z,5.10
2023-02-04T08:29:57.326Z,3.07
2023-02-04T08:32:29.965Z,3.47
2023-02-04T08:35:00.879Z,3.27
2023-02-04T08:37:34.449Z,6.50
2023-02-04T08:40:08.359Z,2.87
2023-02-04T08:42:40.723Z,3.53
2023-02-04T08:45:11.809Z,3.53
2023-02-04T08:47:42.617Z,3.47
2023-02-04T08:50:16.058Z,4.07
2023-02-04T08:52:47.615Z,4.00
2023-02-04T08:55:20.496Z,5.80
2023-02-04T08:57:51.141Z,4.23
2023-02-04T09:00:25.268Z,3.50
2023-02-04T09:02:56.136Z,4.10
2023-02-04T09:05:29.411Z,3.53
2023-02-04T09:08:00.348Z,3.47
2023-02-04T09:10:34.262Z,3.37
2023-02-04T09:13:05.450Z,1.53
2023-02-04T09:15:37.360Z,3.00
2023-02-04T09:18:13.546Z,1.77
2023-02-04T09:20:49.736Z,5.10
2023-02-04T09:23:22.958Z,2.57
2023-02-04T09:25:55.495Z,4.13
2023-02-04T09:28:27.712Z,3.93
2023-02-04T09:30:58.244Z,2.50
2023-02-04T09:33:32.573Z,2.50
2023-02-04T09:36:10.267Z,4.23
2023-02-04T09:38:35.933Z,2.80
2023-02-04T09:41:10.678Z,2.50
2023-02-04T09:43:47.281Z,2.67
2023-02-04T09:46:21.650Z,2.70
2023-02-04T09:48:53.674Z,2.40
2023-02-04T09:51:26.850Z,5.33
2023-02-04T09:54:03.316Z,3.07
2023-02-04T09:56:34.990Z,3.90
2023-02-04T09:59:23.134Z,2.57
2023-02-04T10:02:02.271Z,2.73
2023-02-04T10:04:32.967Z,2.30
2023-02-04T10:07:07.791Z,3.03
2023-02-04T10:09:39.645Z,3.30
2023-02-04T10:12:11.652Z,2.30
2023-02-04T10:14:43.716Z,3.17
2023-02-04T10:17:19.776Z,3.10
2023-02-04T10:19:53.147Z,2.13
2023-02-04T10:22:24.233Z,4.00
2023-02-04T10:24:55.825Z,7.47
2023-02-04T10:27:26.500Z,1.77
2023-02-04T10:30:01.639Z,4.33
2023-02-04T10:32:36.210Z,3.70
2023-02-04T10:35:07.361Z,5.53
2023-02-04T10:37:38.275Z,3.97
2023-02-04T10:40:13.382Z,3.97
2023-02-04T10:42:53.250Z,4.27
2023-02-04T10:45:25.311Z,2.00
2023-02-04T10:47:58.979Z,2.60
2023-02-04T10:50:31.880Z,1.92
2023-02-04T10:53:22.389Z,3.60
2023-02-04T10:55:57.434Z,1.40
2023-02-04T10:58:33.735Z,2.07
2023-02-04T11:01:04.354Z,1.30
2023-02-04T11:03:38.639Z,1.60
2023-02-04T11:06:16.247Z,2.37
2023-02-04T11:08:50.166Z,2.00
2023-02-04T11:11:27.646Z,2.57
2023-02-04T11:14:02.236Z,3.27
2023-02-04T11:16:35.674Z,3.07
2023-02-04T11:19:09.564Z,1.00
2023-02-04T11:21:43.569Z,2.80
2023-02-04T11:24:17.040Z,1.90
2023-02-04T11:26:51.677Z,2.40
2023-02-04T11:29:32.350Z,2.10
2023-02-04T11:32:05.813Z,1.63
2023-02-04T11:34:48.617Z,2.03
2023-02-04T11:37:39.327Z,2.57
2023-02-04T11:40:27.957Z,2.10
2023-02-04T11:43:13.418Z,1.43
2023-02-04T11:45:45.620Z,1.13
2023-02-04T11:48:19.273Z,0.93
2023-02-04T11:51:01.113Z,1.20
2023-02-04T11:53:34.277Z,2.93
2023-02-04T11:56:05.053Z,1.20
2023-02-04T11:58:35.472Z,1.00
2023-02-04T12:01:07.615Z,1.10
2023-02-04T12:03:42.514Z,2.20
2023-02-04T12:06:15.945Z,3.63
2023-02-04T12:08:46.445Z,2.90
2023-02-04T12:11:30.153Z,1.50
2023-02-04T12:14:12.970Z,1.43
2023-02-04T12:16:49.381Z,1.27
2023-02-04T12:19:21.528Z,1.40
2023-02-04T12:21:51.997Z,2.20
2023-02-04T12:24:22.851Z,0.93
2023-02-04T12:26:53.692Z,1.30
2023-02-04T12:29:25.049Z,3.20
2023-02-04T12:31:57.152Z,0.70
2023-02-04T12:34:28.954Z,1.33
2023-02-04T12:36:59.336Z,1.23
2023-02-04T12:39:31.400Z,0.90
2023-02-04T12:42:01.896Z,0.70
2023-02-04T12:44:32.692Z,1.13
2023-02-04T12:47:03.200Z,1.00
2023-02-04T12:49:33.667Z,2.10
2023-02-04T12:52:04.352Z,2.60
2023-02-04T12:54:34.830Z,2.05
2023-02-04T12:57:05.318Z,1.40
2023-02-04T12:59:36.706Z,2.07
2023-02-04T13:02:08.159Z,1.60
2023-02-04T13:04:40.223Z,1.70
2023-02-04T13:07:12.034Z,2.73
2023-02-04T13:09:48.136Z,2.97
2023-02-04T13:12:18.857Z,3.13
2023-02-04T13:14:49.311Z,1.93
2023-02-04T13:17:19.810Z,1.77
2023-02-04T13:19:51.935Z,1.53
2023-02-04T13:22:23.402Z,2.70
2023-02-04T13:24:54.445Z,1.27
2023-02-04T13:27:26.148Z,1.50
2023-02-04T13:29:56.614Z,3.07
2023-02-04T13:32:27.168Z,2.23
2023-02-04T13:34:58.068Z,1.53
2023-02-04T13:37:29.972Z,1.20
2023-02-04T13:40:00.455Z,1.60
2023-02-04T13:42:30.923Z,1.30
2023-02-04T13:45:05.384Z,3.43
2023-02-04T13:47:35.858Z,1.67
2023-02-04T13:50:08.115Z,2.87
2023-02-04T13:52:39.650Z,2.77
2023-02-04T13:55:14.522Z,2.37
2023-02-04T13:57:45.039Z,2.13
2023-02-04T14:00:16.974Z,1.30
2023-02-04T14:02:51.253Z,2.33
2023-02-04T14:05:22.543Z,1.43
2023-02-04T14:07:54.641Z,3.03
2023-02-04T14:10:26.862Z,1.57
2023-02-04T14:12:58.709Z,2.03
2023-02-04T14:15:29.245Z,2.57
2023-02-04T14:18:01.950Z,1.90
2023-02-04T14:20:35.220Z,1.97
2023-02-04T14:23:09.505Z,1.80
2023-02-04T14:25:42.650Z,4.23
2023-02-04T14:28:16.419Z,1.30
2023-02-04T14:30:47.289Z,1.30
2023-02-04T14:33:20.119Z,1.77
2023-02-04T14:35:53.563Z,1.20
2023-02-04T14:38:25.212Z,1.23
2023-02-04T14:40:55.670Z,1.10
2023-02-04T14:43:27.045Z,1.13
2023-02-04T14:45:57.669Z,1.43
2023-02-04T14:48:27.973Z,1.20
2023-02-04T14:51:02.223Z,1.97
2023-02-04T14:53:32.714Z,1.90
2023-02-04T14:56:03.196Z,1.70
2023-02-04T14:58:33.598Z,2.03
2023-02-04T15:01:04.719Z,3.03
2023-02-04T15:03:35.956Z,2.10
2023-02-04T15:06:08.180Z,1.93
2023-02-04T15:08:38.862Z,1.27
2023-02-04T15:11:09.576Z,3.60
2023-02-04T15:13:40.053Z,1.73
2023-02-04T15:16:12.302Z,2.07
2023-02-04T15:18:43.179Z,3.17
2023-02-04T15:21:14.346Z,1.20
2023-02-04T15:23:46.393Z,1.80
2023-02-04T15:26:16.865Z,1.97
2023-02-04T15:28:47.295Z,1.00
2023-02-04T15:31:17.841Z,2.67
2023-02-04T15:33:48.560Z,2.13
2023-02-04T15:36:19.155Z,2.73
2023-02-04T15:38:49.977Z,1.63
2023-02-04T15:41:20.433Z,1.50
2023-02-04T15:43:52.465Z,1.97
2023-02-04T15:46:24.095Z,1.73
2023-02-04T15:48:54.628Z,3.73
2023-02-04T15:51:25.156Z,1.30
2023-02-04T15:53:56.822Z,2.27
2023-02-04T15:56:27.548Z,1.53
2023-02-04T15:58:57.941Z,2.40
2023-02-04T16:01:28.486Z,1.80
2023-02-04T16:04:01.618Z,1.70
2023-02-04T16:06:32.141Z,2.37
2023-02-04T16:09:03.144Z,2.70
2023-02-04T16:11:35.365Z,1.93
2023-02-04T16:14:05.763Z,2.30
2023-02-04T16:16:36.406Z,2.73
2023-02-04T16:19:08.266Z,3.10
2023-02-04T16:21:38.763Z,1.80
2023-02-04T16:24:09.525Z,2.40
2023-02-04T16:26:44.024Z,2.03
2023-02-04T16:29:16.548Z,1.80
2023-02-04T16:31:47.596Z,2.23
2023-02-04T16:34:18.201Z,2.47
2023-02-04T16:36:48.749Z,2.40
2023-02-04T16:39:19.183Z,2.47
2023-02-04T16:41:49.793Z,1.90
2023-02-04T16:44:20.445Z,2.87
2023-02-04T16:46:51.338Z,2.03
2023-02-04T16:49:22.415Z,1.73
2023-02-04T16:51:53.296Z,3.97
2023-02-04T16:54:27.021Z,1.97
2023-02-04T16:56:59.879Z,1.83
2023-02-04T16:59:31.937Z,1.97
2023-02-04T17:02:02.534Z,1.57
2023-02-04T17:04:34.017Z,3.13
2023-02-04T17:07:06.736Z,2.10
2023-02-04T17:09:39.859Z,4.20
2023-02-04T17:12:10.598Z,1.70
2023-02-04T17:14:43.900Z,2.57
2023-02-04T17:17:16.158Z,2.33
2023-02-04T17:19:47.161Z,2.63
2023-02-04T17:22:18.120Z,2.27
2023-02-04T17:24:49.510Z,3.23
2023-02-04T17:27:20.350Z,3.03
2023-02-04T17:29:57.281Z,3.07
2023-02-04T17:32:27.660Z,2.80
2023-02-04T17:35:10.624Z,3.80
2023-02-04T17:37:32.218Z,3.80
2023-02-04T17:40:02.874Z,3.70
2023-02-04T17:42:33.323Z,3.97
2023-02-04T17:45:05.006Z,3.30
2023-02-04T17:47:35.422Z,4.00
2023-02-04T17:50:09.682Z,3.13
2023-02-04T17:52:41.996Z,3.93
2023-02-04T17:55:22.539Z,3.63
2023-02-04T17:57:56.015Z,4.97
2023-02-04T18:00:33.010Z,5.37
2023-02-04T18:03:05.714Z,5.37
2023-02-04T18:05:40.976Z,4.77
2023-02-04T18:08:18.816Z,5.97
2023-02-04T18:10:52.699Z,5.83
2023-02-04T18:13:25.757Z,5.40
2023-02-04T18:16:03.200Z,7.57
2023-02-04T18:18:38.491Z,6.70
2023-02-04T18:21:21.539Z,4.67
2023-02-04T18:24:11.155Z,6.03
2023-02-04T18:26:50.276Z,5.90
2023-02-04T18:29:24.662Z,7.67
2023-02-04T18:31:58.214Z,5.47
2023-02-04T18:34:37.839Z,6.47
2023-02-04T18:37:34.296Z,6.83
2023-02-04T18:40:13.997Z,7.47
2023-02-04T18:42:49.075Z,8.53
2023-02-04T18:45:26.348Z,8.37
2023-02-04T18:48:01.944Z,6.00
2023-02-04T18:50:44.670Z,5.60
2023-02-04T18:53:18.319Z,6.57
2023-02-04T18:55:55.075Z,9.00
2023-02-04T18:58:44.153Z,6.73
2023-02-04T19:01:28.036Z,7.17
2023-02-04T19:04:05.703Z,4.87
2023-02-04T19:06:44.304Z,5.90
2023-02-04T19:09:17.779Z,5.17
2023-02-04T19:11:53.724Z,5.50
2023-02-04T19:14:42.406Z,6.00
2023-02-04T19:17:19.079Z,4.90
2023-02-04T19:20:21.787Z,6.37
2023-02-04T19:22:55.727Z,5.27
2023-02-04T19:25:29.539Z,4.30
2023-02-04T19:28:05.866Z,3.20
2023-02-04T19:30:43.447Z,4.47
2023-02-04T19:33:22.775Z,4.20
2023-02-04T19:35:53.389Z,4.27
2023-02-04T19:38:43.054Z,5.30
2023-02-04T19:41:24.450Z,6.60
2023-02-04T19:44:16.268Z,3.80
2023-02-04T19:46:49.735Z,5.87
2023-02-04T19:49:26.133Z,4.20
2023-02-04T19:51:58.755Z,6.07
2023-02-04T19:54:40.047Z,7.73
2023-02-04T19:57:16.203Z,4.27
2023-02-04T19:59:46.681Z,9.17
2023-02-04T20:02:38.522Z,4.33
2023-02-04T20:05:18.385Z,4.13
2023-02-04T20:07:48.940Z,3.90
2023-02-04T20:10:25.924Z,4.00
2023-02-04T20:13:05.460Z,5.33
2023-02-04T20:15:36.318Z,4.13
2023-02-04T20:18:20.116Z,5.37
2023-02-04T20:20:52.051Z,5.13
2023-02-04T20:23:36.816Z,3.80
2023-02-04T20:26:11.965Z,2.70
2023-02-04T20:28:49.799Z,4.17
2023-02-04T20:31:29.297Z,4.33
2023-02-04T20:34:00.837Z,3.83
2023-02-04T20:36:36.152Z,4.80
2023-02-04T20:39:24.836Z,4.77
2023-02-04T20:42:02.172Z,5.20
2023-02-04T20:44:37.784Z,3.70
2023-02-04T20:47:23.271Z,5.67
2023-02-04T20:49:56.845Z,3.40
2023-02-04T20:52:48.092Z,5.07
2023-02-04T20:55:24.652Z,3.23
2023-02-04T20:58:11.309Z,3.43
2023-02-04T21:00:43.937Z,3.83
2023-02-04T21:03:26.510Z,7.73
2023-02-04T21:05:59.709Z,5.43
2023-02-04T21:08:39.296Z,3.40
2023-02-04T21:11:10.131Z,5.33
2023-02-04T21:13:41.067Z,5.00
2023-02-04T21:16:13.740Z,5.70
2023-02-04T21:18:46.282Z,3.87
2023-02-04T21:21:19.367Z,3.57
2023-02-04T21:23:50.289Z,5.13
2023-02-04T21:26:20.879Z,4.97
2023-02-04T21:28:51.810Z,3.97
2023-02-04T21:31:24.240Z,4.80
2023-02-04T21:33:54.763Z,4.13
2023-02-04T21:36:27.867Z,4.17
2023-02-04T21:38:59.037Z,4.33
2023-02-04T21:41:29.527Z,5.20
2023-02-04T21:44:02.487Z,4.40
2023-02-04T21:46:33.045Z,6.53
2023-02-04T21:49:05.328Z,7.77
2023-02-04T21:51:35.846Z,5.47
2023-02-04T21:54:06.680Z,8.17
2023-02-04T21:56:37.557Z,7.10
2023-02-04T21:59:09.690Z,6.70
2023-02-04T22:01:41.716Z,6.63
2023-02-04T22:04:12.269Z,5.63
2023-02-04T22:06:43.288Z,5.50
2023-02-04T22:09:15.423Z,5.43
2023-02-04T22:11:47.488Z,4.27
2023-02-04T22:14:36.002Z,5.90
2023-02-04T22:17:06.511Z,6.57
2023-02-04T22:19:37.073Z,6.87
2023-02-04T22:22:10.778Z,6.43
2023-02-04T22:24:41.482Z,7.83
2023-02-04T22:27:12.408Z,5.37
2023-02-04T22:29:44.763Z,6.27
2023-02-04T22:32:15.426Z,5.27
2023-02-04T22:34:45.910Z,3.97
2023-02-04T22:37:16.458Z,7.10
2023-02-04T22:39:48.520Z,4.70
2023-02-04T22:42:20.880Z,7.47
2023-02-04T22:44:51.357Z,4.47
2023-02-04T22:47:21.996Z,5.10
2023-02-04T22:49:53.476Z,5.43
2023-02-04T22:52:24.496Z,6.30
2023-02-04T22:54:55.608Z,3.87
2023-02-04T22:57:26.132Z,4.17
2023-02-04T22:59:56.613Z,5.53
2023-02-04T23:02:27.196Z,5.47
2023-02-04T23:04:57.905Z,4.83
2023-02-04T23:07:31.137Z,7.43
2023-02-04T23:10:02.270Z,5.23
2023-02-04T23:12:33.051Z,5.23
2023-02-04T23:15:03.695Z,5.63
2023-02-04T23:17:34.338Z,6.47
2023-02-04T23:20:05.515Z,6.97
2023-02-04T23:22:36.557Z,6.43
2023-02-04T23:25:13.046Z,4.53
2023-02-04T23:27:43.666Z,6.97
2023-02-04T23:30:15.412Z,3.23
2023-02-04T23:32:46.034Z,3.63
2023-02-04T23:35:16.690Z,5.90
2023-02-04T23:37:47.248Z,3.20
2023-02-04T23:40:17.823Z,7.13
2023-02-04T23:42:49.356Z,2.63
2023-02-04T23:45:19.913Z,4.07
2023-02-04T23:47:50.489Z,2.97
2023-02-04T23:50:21.265Z,3.77
2023-02-04T23:52:52.419Z,3.40
2023-02-04T23:55:23.600Z,2.90
2023-02-04T23:57:55.573Z,4.60
